sensor_id;sensor_type;location;lat;lon;timestamp;temperature;humidity
28336;DHT22;15592;53.656;7.276;2022-08-04T00:00:10;17.90;99.90
28336;DHT22;15592;53.656;7.276;2022-08-04T00:05:04;17.90;99.90
28336;DHT22;15592;53.656;7.276;2022-08-04T00:10:17;17.90;99.90
28336;DHT22;15592;53.656;7.276;2022-08-04T00:12:48;17.90;99.90
28336;DHT22;15592;53.656;7.276;2022-08-04T00:15:16;17.90;99.90
28336;DHT22;15592;53.656;7.276;2022-08-04T00:17:53;17.90;99.90
28336;DHT22;15592;53.656;7.276;2022-08-04T00:20:20;17.90;99.90
28336;DHT22;15592;53.656;7.276;2022-08-04T00:22:47;17.90;99.90
28336;DHT22;15592;53.656;7.276;2022-08-04T00:25:13;17.90;99.90
28336;DHT22;15592;53.656;7.276;2022-08-04T00:27:39;17.90;99.90
28336;DHT22;15592;53.656;7.276;2022-08-04T00:30:06;17.90;99.90
28336;DHT22;15592;53.656;7.276;2022-08-04T00:32:32;17.90;99.90
28336;DHT22;15592;53.656;7.276;2022-08-04T00:34:59;18.00;99.90
28336;DHT22;15592;53.656;7.276;2022-08-04T00:37:25;17.90;99.90
28336;DHT22;15592;53.656;7.276;2022-08-04T00:39:53;17.90;99.90
28336;DHT22;15592;53.656;7.276;2022-08-04T00:42:58;17.90;99.90
28336;DHT22;15592;53.656;7.276;2022-08-04T00:46:07;17.90;99.90
28336;DHT22;15592;53.656;7.276;2022-08-04T00:51:36;18.00;99.90
28336;DHT22;15592;53.656;7.276;2022-08-04T01:00:03;18.00;99.90
28336;DHT22;15592;53.656;7.276;2022-08-04T01:02:33;18.00;99.90
28336;DHT22;15592;53.656;7.276;2022-08-04T01:15:51;17.90;99.90
28336;DHT22;15592;53.656;7.276;2022-08-04T01:18:26;17.90;99.90
28336;DHT22;15592;53.656;7.276;2022-08-04T01:21:16;17.90;99.90
28336;DHT22;15592;53.656;7.276;2022-08-04T01:29:15;18.00;99.90
28336;DHT22;15592;53.656;7.276;2022-08-04T01:34:19;18.00;99.90
28336;DHT22;15592;53.656;7.276;2022-08-04T01:36:52;18.10;99.90
28336;DHT22;15592;53.656;7.276;2022-08-04T01:39:20;18.10;99.90
28336;DHT22;15592;53.656;7.276;2022-08-04T01:42:05;18.20;99.90
28336;DHT22;15592;53.656;7.276;2022-08-04T01:44:32;18.10;99.90
28336;DHT22;15592;53.656;7.276;2022-08-04T01:47:00;18.10;99.90
28336;DHT22;15592;53.656;7.276;2022-08-04T01:49:29;18.10;99.90
28336;DHT22;15592;53.656;7.276;2022-08-04T01:51:55;18.00;99.90
28336;DHT22;15592;53.656;7.276;2022-08-04T01:54:22;18.00;99.90
28336;DHT22;15592;53.656;7.276;2022-08-04T01:56:49;18.00;99.90
28336;DHT22;15592;53.656;7.276;2022-08-04T01:59:17;18.00;99.90
28336;DHT22;15592;53.656;7.276;2022-08-04T02:01:43;17.90;99.90
28336;DHT22;15592;53.656;7.276;2022-08-04T02:04:13;17.90;99.90
28336;DHT22;15592;53.656;7.276;2022-08-04T02:09:34;17.90;99.90
28336;DHT22;15592;53.656;7.276;2022-08-04T02:12:04;17.90;99.90
28336;DHT22;15592;53.656;7.276;2022-08-04T02:15:12;17.90;99.90
28336;DHT22;15592;53.656;7.276;2022-08-04T02:20:32;17.90;99.90
28336;DHT22;15592;53.656;7.276;2022-08-04T02:23:09;17.90;99.90
28336;DHT22;15592;53.656;7.276;2022-08-04T02:25:46;17.90;99.90
28336;DHT22;15592;53.656;7.276;2022-08-04T02:36:38;17.70;99.90
28336;DHT22;15592;53.656;7.276;2022-08-04T02:39:11;17.70;99.90
28336;DHT22;15592;53.656;7.276;2022-08-04T02:41:39;17.70;99.90
28336;DHT22;15592;53.656;7.276;2022-08-04T02:44:07;17.70;99.90
28336;DHT22;15592;53.656;7.276;2022-08-04T02:46:35;17.70;99.90
28336;DHT22;15592;53.656;7.276;2022-08-04T02:49:06;17.70;99.90
28336;DHT22;15592;53.656;7.276;2022-08-04T02:51:36;17.70;99.90
28336;DHT22;15592;53.656;7.276;2022-08-04T02:54:04;17.70;99.90
28336;DHT22;15592;53.656;7.276;2022-08-04T02:56:32;17.70;99.90
28336;DHT22;15592;53.656;7.276;2022-08-04T02:59:09;17.80;99.90
28336;DHT22;15592;53.656;7.276;2022-08-04T03:01:35;17.80;99.90
28336;DHT22;15592;53.656;7.276;2022-08-04T03:15:10;17.90;99.90
28336;DHT22;15592;53.656;7.276;2022-08-04T03:17:56;17.90;99.90
28336;DHT22;15592;53.656;7.276;2022-08-04T03:42:52;17.90;99.90
28336;DHT22;15592;53.656;7.276;2022-08-04T03:54:13;17.80;99.90
28336;DHT22;15592;53.656;7.276;2022-08-04T04:00:17;17.80;99.90
28336;DHT22;15592;53.656;7.276;2022-08-04T04:05:19;17.80;99.90
28336;DHT22;15592;53.656;7.276;2022-08-04T04:18:28;17.80;99.90
28336;DHT22;15592;53.656;7.276;2022-08-04T04:21:05;17.80;99.90
28336;DHT22;15592;53.656;7.276;2022-08-04T04:23:45;17.80;99.90
28336;DHT22;15592;53.656;7.276;2022-08-04T04:53:27;18.00;99.90
28336;DHT22;15592;53.656;7.276;2022-08-04T04:56:07;18.00;99.90
28336;DHT22;15592;53.656;7.276;2022-08-04T04:58:36;18.10;99.90
28336;DHT22;15592;53.656;7.276;2022-08-04T05:10:50;18.40;99.90
28336;DHT22;15592;53.656;7.276;2022-08-04T05:19:00;18.70;99.90
28336;DHT22;15592;53.656;7.276;2022-08-04T05:21:43;18.70;99.90
28336;DHT22;15592;53.656;7.276;2022-08-04T05:24:12;18.70;99.90
28336;DHT22;15592;53.656;7.276;2022-08-04T05:26:43;18.80;99.90
28336;DHT22;15592;53.656;7.276;2022-08-04T05:29:12;18.80;99.90
28336;DHT22;15592;53.656;7.276;2022-08-04T05:31:48;18.80;99.90
28336;DHT22;15592;53.656;7.276;2022-08-04T05:34:28;18.80;99.90
28336;DHT22;15592;53.656;7.276;2022-08-04T05:36:58;18.80;99.90
28336;DHT22;15592;53.656;7.276;2022-08-04T05:39:27;18.80;99.90
28336;DHT22;15592;53.656;7.276;2022-08-04T05:41:54;18.90;99.90
28336;DHT22;15592;53.656;7.276;2022-08-04T05:44:22;18.90;99.90
28336;DHT22;15592;53.656;7.276;2022-08-04T05:46:56;18.90;99.90
28336;DHT22;15592;53.656;7.276;2022-08-04T05:49:23;19.00;99.90
28336;DHT22;15592;53.656;7.276;2022-08-04T05:51:50;19.00;99.90
28336;DHT22;15592;53.656;7.276;2022-08-04T05:54:17;19.00;99.90
28336;DHT22;15592;53.656;7.276;2022-08-04T05:56:43;19.10;99.90
28336;DHT22;15592;53.656;7.276;2022-08-04T05:59:10;19.10;99.90
28336;DHT22;15592;53.656;7.276;2022-08-04T06:01:37;19.10;99.90
28336;DHT22;15592;53.656;7.276;2022-08-04T06:04:04;19.20;99.90
28336;DHT22;15592;53.656;7.276;2022-08-04T06:06:31;19.30;99.90
28336;DHT22;15592;53.656;7.276;2022-08-04T06:08:57;19.30;99.90
28336;DHT22;15592;53.656;7.276;2022-08-04T06:11:26;19.30;99.90
28336;DHT22;15592;53.656;7.276;2022-08-04T06:13:57;19.40;99.90
28336;DHT22;15592;53.656;7.276;2022-08-04T06:16:25;19.40;99.90
28336;DHT22;15592;53.656;7.276;2022-08-04T06:18:54;19.50;99.90
28336;DHT22;15592;53.656;7.276;2022-08-04T06:21:23;19.50;99.90
28336;DHT22;15592;53.656;7.276;2022-08-04T06:23:51;19.50;99.90
28336;DHT22;15592;53.656;7.276;2022-08-04T06:26:18;19.60;99.90
28336;DHT22;15592;53.656;7.276;2022-08-04T06:28:48;19.60;99.90
28336;DHT22;15592;53.656;7.276;2022-08-04T06:31:16;19.60;99.90
28336;DHT22;15592;53.656;7.276;2022-08-04T06:33:59;19.60;99.90
28336;DHT22;15592;53.656;7.276;2022-08-04T06:36:25;19.60;99.90
28336;DHT22;15592;53.656;7.276;2022-08-04T06:38:51;19.70;99.90
28336;DHT22;15592;53.656;7.276;2022-08-04T06:41:17;19.70;99.90
28336;DHT22;15592;53.656;7.276;2022-08-04T06:43:44;19.80;99.90
28336;DHT22;15592;53.656;7.276;2022-08-04T06:46:11;19.80;99.90
28336;DHT22;15592;53.656;7.276;2022-08-04T06:48:37;19.80;99.90
28336;DHT22;15592;53.656;7.276;2022-08-04T06:51:04;19.90;99.90
28336;DHT22;15592;53.656;7.276;2022-08-04T06:53:30;19.90;99.90
28336;DHT22;15592;53.656;7.276;2022-08-04T06:55:56;19.90;99.90
28336;DHT22;15592;53.656;7.276;2022-08-04T06:58:24;20.00;99.90
28336;DHT22;15592;53.656;7.276;2022-08-04T07:00:50;20.00;99.90
28336;DHT22;15592;53.656;7.276;2022-08-04T07:03:17;20.00;99.90
28336;DHT22;15592;53.656;7.276;2022-08-04T07:05:45;20.10;99.90
28336;DHT22;15592;53.656;7.276;2022-08-04T07:08:12;20.10;99.90
28336;DHT22;15592;53.656;7.276;2022-08-04T07:10:38;20.10;99.90
28336;DHT22;15592;53.656;7.276;2022-08-04T07:13:05;20.20;99.90
28336;DHT22;15592;53.656;7.276;2022-08-04T07:15:32;20.20;99.90
28336;DHT22;15592;53.656;7.276;2022-08-04T07:17:58;20.30;99.90
28336;DHT22;15592;53.656;7.276;2022-08-04T07:20:27;20.40;99.90
28336;DHT22;15592;53.656;7.276;2022-08-04T07:22:54;20.40;99.90
28336;DHT22;15592;53.656;7.276;2022-08-04T07:25:20;20.50;99.90
28336;DHT22;15592;53.656;7.276;2022-08-04T07:27:46;20.60;99.90
28336;DHT22;15592;53.656;7.276;2022-08-04T07:30:12;20.70;99.90
28336;DHT22;15592;53.656;7.276;2022-08-04T07:32:39;20.70;99.90
28336;DHT22;15592;53.656;7.276;2022-08-04T07:35:07;20.80;99.90
28336;DHT22;15592;53.656;7.276;2022-08-04T07:37:33;20.80;99.90
28336;DHT22;15592;53.656;7.276;2022-08-04T07:40:00;20.90;99.90
28336;DHT22;15592;53.656;7.276;2022-08-04T07:42:26;20.90;99.90
28336;DHT22;15592;53.656;7.276;2022-08-04T07:44:52;20.90;99.90
28336;DHT22;15592;53.656;7.276;2022-08-04T07:47:17;21.00;99.90
28336;DHT22;15592;53.656;7.276;2022-08-04T07:49:43;20.90;99.90
28336;DHT22;15592;53.656;7.276;2022-08-04T07:52:09;21.00;99.90
28336;DHT22;15592;53.656;7.276;2022-08-04T07:54:35;20.90;99.90
28336;DHT22;15592;53.656;7.276;2022-08-04T07:57:02;21.00;99.90
28336;DHT22;15592;53.656;7.276;2022-08-04T07:59:28;21.00;99.90
28336;DHT22;15592;53.656;7.276;2022-08-04T08:01:54;21.00;99.90
28336;DHT22;15592;53.656;7.276;2022-08-04T08:04:23;20.90;99.90
28336;DHT22;15592;53.656;7.276;2022-08-04T08:06:50;20.90;99.90
28336;DHT22;15592;53.656;7.276;2022-08-04T08:09:17;20.90;99.90
28336;DHT22;15592;53.656;7.276;2022-08-04T08:11:48;20.90;99.90
28336;DHT22;15592;53.656;7.276;2022-08-04T08:14:17;20.90;99.90
28336;DHT22;15592;53.656;7.276;2022-08-04T08:16:44;20.90;99.90
28336;DHT22;15592;53.656;7.276;2022-08-04T08:19:09;20.90;99.90
28336;DHT22;15592;53.656;7.276;2022-08-04T08:21:35;20.90;99.90
28336;DHT22;15592;53.656;7.276;2022-08-04T08:24:01;21.00;99.90
28336;DHT22;15592;53.656;7.276;2022-08-04T08:26:27;21.00;99.90
28336;DHT22;15592;53.656;7.276;2022-08-04T08:28:53;21.00;99.90
28336;DHT22;15592;53.656;7.276;2022-08-04T08:31:19;21.10;99.90
28336;DHT22;15592;53.656;7.276;2022-08-04T08:33:45;21.10;99.90
28336;DHT22;15592;53.656;7.276;2022-08-04T08:36:35;21.30;99.90
28336;DHT22;15592;53.656;7.276;2022-08-04T08:42:24;21.60;99.90
28336;DHT22;15592;53.656;7.276;2022-08-04T08:47:48;22.00;99.90
28336;DHT22;15592;53.656;7.276;2022-08-04T09:07:45;22.30;99.90
28336;DHT22;15592;53.656;7.276;2022-08-04T09:10:27;22.40;99.90
28336;DHT22;15592;53.656;7.276;2022-08-04T09:12:56;22.50;99.90
28336;DHT22;15592;53.656;7.276;2022-08-04T09:15:33;22.50;99.90
28336;DHT22;15592;53.656;7.276;2022-08-04T09:20:58;22.70;99.90
28336;DHT22;15592;53.656;7.276;2022-08-04T09:26:33;22.90;99.90
28336;DHT22;15592;53.656;7.276;2022-08-04T09:32:26;23.10;99.90
28336;DHT22;15592;53.656;7.276;2022-08-04T09:35:05;23.30;99.90
28336;DHT22;15592;53.656;7.276;2022-08-04T09:46:12;23.80;99.90
28336;DHT22;15592;53.656;7.276;2022-08-04T09:48:46;24.10;99.90
28336;DHT22;15592;53.656;7.276;2022-08-04T09:54:08;24.50;99.90
28336;DHT22;15592;53.656;7.276;2022-08-04T09:59:56;24.80;99.90
28336;DHT22;15592;53.656;7.276;2022-08-04T10:02:23;25.00;99.90
28336;DHT22;15592;53.656;7.276;2022-08-04T10:04:52;25.10;99.90
28336;DHT22;15592;53.656;7.276;2022-08-04T10:16:03;25.40;99.90
28336;DHT22;15592;53.656;7.276;2022-08-04T10:21:45;25.40;99.90
28336;DHT22;15592;53.656;7.276;2022-08-04T10:27:01;25.30;99.90
28336;DHT22;15592;53.656;7.276;2022-08-04T10:29:40;25.20;99.90
28336;DHT22;15592;53.656;7.276;2022-08-04T10:35:43;25.30;99.90
28336;DHT22;15592;53.656;7.276;2022-08-04T10:48:42;24.90;99.90
28336;DHT22;15592;53.656;7.276;2022-08-04T10:51:29;24.90;99.90
28336;DHT22;15592;53.656;7.276;2022-08-04T10:54:14;25.00;99.90
28336;DHT22;15592;53.656;7.276;2022-08-04T10:56:49;25.10;99.90
28336;DHT22;15592;53.656;7.276;2022-08-04T10:59:25;25.20;99.90
28336;DHT22;15592;53.656;7.276;2022-08-04T11:01:54;25.30;99.90
28336;DHT22;15592;53.656;7.276;2022-08-04T11:07:01;25.50;99.90
28336;DHT22;15592;53.656;7.276;2022-08-04T11:09:27;25.60;99.90
28336;DHT22;15592;53.656;7.276;2022-08-04T11:12:05;25.60;99.90
28336;DHT22;15592;53.656;7.276;2022-08-04T11:14:44;25.70;99.90
28336;DHT22;15592;53.656;7.276;2022-08-04T11:17:27;25.70;99.90
28336;DHT22;15592;53.656;7.276;2022-08-04T11:23:15;25.80;99.90
28336;DHT22;15592;53.656;7.276;2022-08-04T11:25:54;25.80;99.90
28336;DHT22;15592;53.656;7.276;2022-08-04T11:31:09;25.90;99.90
28336;DHT22;15592;53.656;7.276;2022-08-04T11:33:53;25.90;99.90
28336;DHT22;15592;53.656;7.276;2022-08-04T11:39:49;25.90;99.90
28336;DHT22;15592;53.656;7.276;2022-08-04T11:42:20;25.70;99.90
28336;DHT22;15592;53.656;7.276;2022-08-04T11:44:54;25.70;99.90
28336;DHT22;15592;53.656;7.276;2022-08-04T11:47:27;25.60;99.90
28336;DHT22;15592;53.656;7.276;2022-08-04T11:50:17;25.50;99.90
28336;DHT22;15592;53.656;7.276;2022-08-04T11:52:44;25.30;99.90
28336;DHT22;15592;53.656;7.276;2022-08-04T11:55:13;25.30;99.90
28336;DHT22;15592;53.656;7.276;2022-08-04T11:57:40;25.30;99.90
28336;DHT22;15592;53.656;7.276;2022-08-04T12:00:09;25.20;99.90
28336;DHT22;15592;53.656;7.276;2022-08-04T12:05:35;24.70;99.90
28336;DHT22;15592;53.656;7.276;2022-08-04T12:11:27;24.20;99.90
28336;DHT22;15592;53.656;7.276;2022-08-04T12:17:00;24.00;99.90
28336;DHT22;15592;53.656;7.276;2022-08-04T12:19:28;23.90;99.90
28336;DHT22;15592;53.656;7.276;2022-08-04T12:21:58;23.80;99.90
28336;DHT22;15592;53.656;7.276;2022-08-04T12:24:45;23.60;99.90
28336;DHT22;15592;53.656;7.276;2022-08-04T12:27:23;23.60;99.90
28336;DHT22;15592;53.656;7.276;2022-08-04T12:29:50;23.60;99.90
28336;DHT22;15592;53.656;7.276;2022-08-04T12:32:28;23.60;99.90
28336;DHT22;15592;53.656;7.276;2022-08-04T12:35:18;23.60;99.90
28336;DHT22;15592;53.656;7.276;2022-08-04T12:37:57;23.70;99.90
28336;DHT22;15592;53.656;7.276;2022-08-04T12:40:32;23.70;99.90
28336;DHT22;15592;53.656;7.276;2022-08-04T12:43:22;23.60;99.90
28336;DHT22;15592;53.656;7.276;2022-08-04T12:45:56;23.60;99.90
28336;DHT22;15592;53.656;7.276;2022-08-04T12:48:23;23.60;99.90
28336;DHT22;15592;53.656;7.276;2022-08-04T12:50:56;23.60;99.90
28336;DHT22;15592;53.656;7.276;2022-08-04T12:53:26;23.60;99.90
28336;DHT22;15592;53.656;7.276;2022-08-04T12:55:53;23.60;99.90
28336;DHT22;15592;53.656;7.276;2022-08-04T12:58:26;23.50;99.90
28336;DHT22;15592;53.656;7.276;2022-08-04T13:00:57;23.40;99.90
28336;DHT22;15592;53.656;7.276;2022-08-04T13:03:35;23.30;99.90
28336;DHT22;15592;53.656;7.276;2022-08-04T13:06:02;23.30;99.90
28336;DHT22;15592;53.656;7.276;2022-08-04T13:08:28;23.30;99.90
28336;DHT22;15592;53.656;7.276;2022-08-04T13:10:58;23.30;99.90
28336;DHT22;15592;53.656;7.276;2022-08-04T13:13:26;23.30;99.90
28336;DHT22;15592;53.656;7.276;2022-08-04T13:16:00;23.30;99.90
28336;DHT22;15592;53.656;7.276;2022-08-04T13:18:28;23.20;99.90
28336;DHT22;15592;53.656;7.276;2022-08-04T13:20:56;23.20;99.90
28336;DHT22;15592;53.656;7.276;2022-08-04T13:23:24;23.10;99.90
28336;DHT22;15592;53.656;7.276;2022-08-04T13:25:52;23.00;99.90
28336;DHT22;15592;53.656;7.276;2022-08-04T13:28:21;23.00;99.90
28336;DHT22;15592;53.656;7.276;2022-08-04T13:30:53;23.00;99.90
28336;DHT22;15592;53.656;7.276;2022-08-04T13:33:22;23.00;99.90
28336;DHT22;15592;53.656;7.276;2022-08-04T13:35:48;23.00;99.90
28336;DHT22;15592;53.656;7.276;2022-08-04T13:38:16;23.10;99.90
28336;DHT22;15592;53.656;7.276;2022-08-04T13:40:43;23.10;99.90
28336;DHT22;15592;53.656;7.276;2022-08-04T13:43:21;23.20;99.90
28336;DHT22;15592;53.656;7.276;2022-08-04T13:45:48;23.30;99.90
28336;DHT22;15592;53.656;7.276;2022-08-04T13:48:15;23.40;99.90
28336;DHT22;15592;53.656;7.276;2022-08-04T13:50:44;23.40;99.90
28336;DHT22;15592;53.656;7.276;2022-08-04T13:53:11;23.40;99.90
28336;DHT22;15592;53.656;7.276;2022-08-04T13:55:37;23.40;99.90
28336;DHT22;15592;53.656;7.276;2022-08-04T13:58:12;23.50;99.90
28336;DHT22;15592;53.656;7.276;2022-08-04T14:00:48;23.50;99.90
28336;DHT22;15592;53.656;7.276;2022-08-04T14:03:28;23.40;99.90
28336;DHT22;15592;53.656;7.276;2022-08-04T14:06:17;23.40;99.90
28336;DHT22;15592;53.656;7.276;2022-08-04T14:08:55;23.50;99.90
28336;DHT22;15592;53.656;7.276;2022-08-04T14:11:37;23.60;99.90
28336;DHT22;15592;53.656;7.276;2022-08-04T14:14:26;23.60;99.90
28336;DHT22;15592;53.656;7.276;2022-08-04T14:17:10;23.60;99.90
28336;DHT22;15592;53.656;7.276;2022-08-04T14:25:13;23.60;99.90
28336;DHT22;15592;53.656;7.276;2022-08-04T14:27:50;23.50;99.90
28336;DHT22;15592;53.656;7.276;2022-08-04T14:30:22;23.40;99.90
28336;DHT22;15592;53.656;7.276;2022-08-04T14:33:05;23.40;99.90
28336;DHT22;15592;53.656;7.276;2022-08-04T14:35:32;23.40;99.90
28336;DHT22;15592;53.656;7.276;2022-08-04T14:40:27;23.10;99.90
28336;DHT22;15592;53.656;7.276;2022-08-04T14:42:53;23.00;99.90
28336;DHT22;15592;53.656;7.276;2022-08-04T14:45:44;22.90;99.90
28336;DHT22;15592;53.656;7.276;2022-08-04T14:48:14;22.90;99.90
28336;DHT22;15592;53.656;7.276;2022-08-04T14:50:47;22.80;99.90
28336;DHT22;15592;53.656;7.276;2022-08-04T14:53:24;22.70;99.90
28336;DHT22;15592;53.656;7.276;2022-08-04T14:55:58;22.70;99.90
28336;DHT22;15592;53.656;7.276;2022-08-04T14:58:25;22.70;99.90
28336;DHT22;15592;53.656;7.276;2022-08-04T15:00:56;22.70;99.90
28336;DHT22;15592;53.656;7.276;2022-08-04T15:03:23;22.60;99.90
28336;DHT22;15592;53.656;7.276;2022-08-04T15:05:49;22.60;99.90
28336;DHT22;15592;53.656;7.276;2022-08-04T15:08:16;22.50;99.90
28336;DHT22;15592;53.656;7.276;2022-08-04T15:10:43;22.40;99.90
28336;DHT22;15592;53.656;7.276;2022-08-04T15:13:09;22.20;99.90
28336;DHT22;15592;53.656;7.276;2022-08-04T15:15:38;22.10;99.90
28336;DHT22;15592;53.656;7.276;2022-08-04T15:18:07;22.10;99.90
28336;DHT22;15592;53.656;7.276;2022-08-04T15:20:34;22.00;99.90
28336;DHT22;15592;53.656;7.276;2022-08-04T15:23:01;22.00;99.90
28336;DHT22;15592;53.656;7.276;2022-08-04T15:25:35;21.90;99.90
28336;DHT22;15592;53.656;7.276;2022-08-04T15:28:02;21.90;99.90
28336;DHT22;15592;53.656;7.276;2022-08-04T15:30:31;21.90;99.90
28336;DHT22;15592;53.656;7.276;2022-08-04T15:33:00;21.80;99.90
28336;DHT22;15592;53.656;7.276;2022-08-04T15:35:27;21.70;99.90
28336;DHT22;15592;53.656;7.276;2022-08-04T15:37:59;21.60;99.90
28336;DHT22;15592;53.656;7.276;2022-08-04T15:40:46;21.50;99.90
28336;DHT22;15592;53.656;7.276;2022-08-04T15:45:54;21.40;99.90
28336;DHT22;15592;53.656;7.276;2022-08-04T15:48:23;21.40;99.90
28336;DHT22;15592;53.656;7.276;2022-08-04T15:53:24;21.30;99.90
28336;DHT22;15592;53.656;7.276;2022-08-04T15:55:50;21.30;99.90
28336;DHT22;15592;53.656;7.276;2022-08-04T15:58:18;21.40;99.90
28336;DHT22;15592;53.656;7.276;2022-08-04T16:16:30;21.30;99.90
28336;DHT22;15592;53.656;7.276;2022-08-04T16:19:44;21.20;99.90
28336;DHT22;15592;53.656;7.276;2022-08-04T16:22:31;21.20;99.90
28336;DHT22;15592;53.656;7.276;2022-08-04T16:24:58;21.10;99.90
28336;DHT22;15592;53.656;7.276;2022-08-04T16:27:41;20.90;99.90
28336;DHT22;15592;53.656;7.276;2022-08-04T16:30:10;20.80;99.90
28336;DHT22;15592;53.656;7.276;2022-08-04T16:32:42;20.70;99.90
28336;DHT22;15592;53.656;7.276;2022-08-04T16:35:27;20.70;99.90
28336;DHT22;15592;53.656;7.276;2022-08-04T16:38:09;20.70;99.90
28336;DHT22;15592;53.656;7.276;2022-08-04T16:40:36;20.70;99.90
28336;DHT22;15592;53.656;7.276;2022-08-04T16:45:41;20.50;99.90
28336;DHT22;15592;53.656;7.276;2022-08-04T16:48:08;20.50;99.90
28336;DHT22;15592;53.656;7.276;2022-08-04T16:50:45;20.50;99.90
28336;DHT22;15592;53.656;7.276;2022-08-04T16:53:12;20.50;99.90
28336;DHT22;15592;53.656;7.276;2022-08-04T16:55:38;20.50;99.90
28336;DHT22;15592;53.656;7.276;2022-08-04T16:58:09;20.50;99.90
28336;DHT22;15592;53.656;7.276;2022-08-04T17:00:36;20.50;99.90
28336;DHT22;15592;53.656;7.276;2022-08-04T17:03:03;20.60;99.90
28336;DHT22;15592;53.656;7.276;2022-08-04T17:05:30;20.60;99.90
28336;DHT22;15592;53.656;7.276;2022-08-04T17:07:57;20.50;99.90
28336;DHT22;15592;53.656;7.276;2022-08-04T17:12:58;20.30;99.90
28336;DHT22;15592;53.656;7.276;2022-08-04T17:15:24;20.30;99.90
28336;DHT22;15592;53.656;7.276;2022-08-04T17:17:50;20.20;99.90
28336;DHT22;15592;53.656;7.276;2022-08-04T17:20:25;20.20;99.90
28336;DHT22;15592;53.656;7.276;2022-08-04T17:22:51;20.20;99.90
28336;DHT22;15592;53.656;7.276;2022-08-04T17:25:17;20.30;99.90
28336;DHT22;15592;53.656;7.276;2022-08-04T17:27:42;20.40;99.90
28336;DHT22;15592;53.656;7.276;2022-08-04T17:30:25;20.30;99.90
28336;DHT22;15592;53.656;7.276;2022-08-04T17:32:53;20.30;99.90
28336;DHT22;15592;53.656;7.276;2022-08-04T17:35:19;20.20;99.90
28336;DHT22;15592;53.656;7.276;2022-08-04T17:37:45;20.10;99.90
28336;DHT22;15592;53.656;7.276;2022-08-04T17:40:14;20.10;99.90
28336;DHT22;15592;53.656;7.276;2022-08-04T17:42:40;20.10;99.90
28336;DHT22;15592;53.656;7.276;2022-08-04T17:45:15;20.20;99.90
28336;DHT22;15592;53.656;7.276;2022-08-04T17:47:51;20.20;99.90
28336;DHT22;15592;53.656;7.276;2022-08-04T17:50:25;20.10;99.90
28336;DHT22;15592;53.656;7.276;2022-08-04T17:53:01;20.10;99.90
28336;DHT22;15592;53.656;7.276;2022-08-04T17:55:42;20.00;99.90
28336;DHT22;15592;53.656;7.276;2022-08-04T17:58:20;20.00;99.90
28336;DHT22;15592;53.656;7.276;2022-08-04T18:00:59;20.00;99.90
28336;DHT22;15592;53.656;7.276;2022-08-04T18:03:25;20.00;99.90
28336;DHT22;15592;53.656;7.276;2022-08-04T18:05:52;20.00;99.90
28336;DHT22;15592;53.656;7.276;2022-08-04T18:08:24;20.00;99.90
28336;DHT22;15592;53.656;7.276;2022-08-04T18:10:52;19.90;99.90
28336;DHT22;15592;53.656;7.276;2022-08-04T18:13:18;19.90;99.90
28336;DHT22;15592;53.656;7.276;2022-08-04T18:15:44;19.80;99.90
28336;DHT22;15592;53.656;7.276;2022-08-04T18:18:20;19.70;99.90
28336;DHT22;15592;53.656;7.276;2022-08-04T18:20:47;19.70;99.90
28336;DHT22;15592;53.656;7.276;2022-08-04T18:23:13;19.60;99.90
28336;DHT22;15592;53.656;7.276;2022-08-04T18:25:44;19.60;99.90
28336;DHT22;15592;53.656;7.276;2022-08-04T18:28:10;19.60;99.90
28336;DHT22;15592;53.656;7.276;2022-08-04T18:30:38;19.60;99.90
28336;DHT22;15592;53.656;7.276;2022-08-04T18:33:04;19.50;99.90
28336;DHT22;15592;53.656;7.276;2022-08-04T18:35:30;19.50;99.90
28336;DHT22;15592;53.656;7.276;2022-08-04T18:38:02;19.40;99.90
28336;DHT22;15592;53.656;7.276;2022-08-04T18:40:28;19.40;99.90
28336;DHT22;15592;53.656;7.276;2022-08-04T18:42:53;19.40;99.90
28336;DHT22;15592;53.656;7.276;2022-08-04T18:45:19;19.40;99.90
28336;DHT22;15592;53.656;7.276;2022-08-04T18:47:44;19.30;99.90
28336;DHT22;15592;53.656;7.276;2022-08-04T18:50:10;19.30;99.90
28336;DHT22;15592;53.656;7.276;2022-08-04T18:52:36;19.30;99.90
28336;DHT22;15592;53.656;7.276;2022-08-04T18:55:03;19.20;99.90
28336;DHT22;15592;53.656;7.276;2022-08-04T18:57:29;19.20;99.90
28336;DHT22;15592;53.656;7.276;2022-08-04T18:59:55;19.20;99.90
28336;DHT22;15592;53.656;7.276;2022-08-04T19:02:21;19.10;99.90
28336;DHT22;15592;53.656;7.276;2022-08-04T19:04:47;19.10;99.90
28336;DHT22;15592;53.656;7.276;2022-08-04T19:07:16;19.10;99.90
28336;DHT22;15592;53.656;7.276;2022-08-04T19:09:42;19.00;99.90
28336;DHT22;15592;53.656;7.276;2022-08-04T19:12:09;18.90;99.90
28336;DHT22;15592;53.656;7.276;2022-08-04T19:14:35;18.90;99.90
28336;DHT22;15592;53.656;7.276;2022-08-04T19:17:00;18.90;99.90
28336;DHT22;15592;53.656;7.276;2022-08-04T19:19:26;18.80;99.90
28336;DHT22;15592;53.656;7.276;2022-08-04T19:21:52;18.80;99.90
28336;DHT22;15592;53.656;7.276;2022-08-04T19:24:17;18.70;99.90
28336;DHT22;15592;53.656;7.276;2022-08-04T19:26:43;18.70;99.90
28336;DHT22;15592;53.656;7.276;2022-08-04T19:29:10;18.70;99.90
28336;DHT22;15592;53.656;7.276;2022-08-04T19:31:35;18.60;99.90
28336;DHT22;15592;53.656;7.276;2022-08-04T19:34:01;18.60;99.90
28336;DHT22;15592;53.656;7.276;2022-08-04T19:36:28;18.60;99.90
28336;DHT22;15592;53.656;7.276;2022-08-04T19:38:56;18.50;99.90
28336;DHT22;15592;53.656;7.276;2022-08-04T19:41:22;18.50;99.90
28336;DHT22;15592;53.656;7.276;2022-08-04T19:43:47;18.50;99.90
28336;DHT22;15592;53.656;7.276;2022-08-04T19:46:14;18.50;99.90
28336;DHT22;15592;53.656;7.276;2022-08-04T19:48:40;18.50;99.90
28336;DHT22;15592;53.656;7.276;2022-08-04T19:51:06;18.50;99.90
28336;DHT22;15592;53.656;7.276;2022-08-04T19:53:32;18.50;99.90
28336;DHT22;15592;53.656;7.276;2022-08-04T19:55:57;18.50;99.90
28336;DHT22;15592;53.656;7.276;2022-08-04T19:58:23;18.50;99.90
28336;DHT22;15592;53.656;7.276;2022-08-04T20:00:49;18.50;99.90
28336;DHT22;15592;53.656;7.276;2022-08-04T20:03:15;18.40;99.90
28336;DHT22;15592;53.656;7.276;2022-08-04T20:05:42;18.40;99.90
28336;DHT22;15592;53.656;7.276;2022-08-04T20:08:09;18.30;99.90
28336;DHT22;15592;53.656;7.276;2022-08-04T20:10:35;18.30;99.90
28336;DHT22;15592;53.656;7.276;2022-08-04T20:13:01;18.30;99.90
28336;DHT22;15592;53.656;7.276;2022-08-04T20:15:26;18.30;99.90
28336;DHT22;15592;53.656;7.276;2022-08-04T20:17:52;18.30;99.90
28336;DHT22;15592;53.656;7.276;2022-08-04T20:20:18;18.30;99.90
28336;DHT22;15592;53.656;7.276;2022-08-04T20:22:44;18.30;99.90
28336;DHT22;15592;53.656;7.276;2022-08-04T20:25:09;18.20;99.90
28336;DHT22;15592;53.656;7.276;2022-08-04T20:27:35;18.20;99.90
28336;DHT22;15592;53.656;7.276;2022-08-04T20:30:01;18.20;99.90